Raiatea — V7VA3 — position and weather

sailwx.info

Track history (hours):
 
Tides and Currents Weather Stations Pressure Air Temp Water Temp Dewpoint Dewpoint Depression Visibility Wind Speed Wind Dir Waves Ship Positions

Raiatea

Last reported at 2016-Jul-14 06:33 UTC. Time now 2016-Jul-27 23:03 UTC.
Position N 36°27' E 124°07'.
Warning: this ship's position is 13 days out of date.

Length 292 m; draft 8.9 m.

Type: Cargo ship. MMSI: 538004070.

Date/timePositionNaut miles runAvg speedWind from/ knotsBaromVisibWave heightAir tempDewpointWater temp
2016-Jul-14 06:33N 36°27' E 124°07'9413.4
2016-Jul-13 23:30N 37°53' E 123°16'1414.4
2016-Jul-13 22:33N 37°57' E 122°60'1414.4
2016-Jul-13 21:33N 38°02' E 122°42'1414.1
2016-Jul-13 20:34N 38°06' E 122°25'1414.1
2016-Jul-13 19:33N 38°11' E 122°09'1514.4
2016-Jul-13 18:33N 38°16' E 121°51'1414.5
2016-Jul-13 17:33N 38°21' E 121°34'1814.8
2016-Jul-13 16:22N 38°26' E 121°12'1414.9
2016-Jul-13 15:27N 38°32' E 120°57'1514.9
2016-Jul-13 14:25N 38°34' E 120°37'1314.6
2016-Jul-13 13:34N 38°36' E 120°21'1414.4
2016-Jul-13 12:33N 38°38' E 120°03'1414.1
2016-Jul-13 11:33N 38°39' E 119°45'1413.8
2016-Jul-13 10:33N 38°40' E 119°27'1313.5
2016-Jul-13 09:33N 38°40' E 119°10'1413.6
2016-Jul-13 08:33N 38°40' E 118°53'1414.2
2016-Jul-13 07:33N 38°37' E 118°35'1212.0
2016-Jul-13 06:33N 38°34' E 118°20'1211.7
2016-Jul-13 05:34N 38°28' E 118°07'  
2016-Jul-10 10:28N 38°22' E 117°54'35 2.0
2016-Jul-09 17:25N 38°56' E 117°59'9 9.8
2016-Jul-09 16:33N 38°58' E 117°48'0 0.0
2016-Jul-09 03:22N 38°58' E 117°48'0 0.0
2016-Jul-09 02:04N 38°58' E 117°48'0 0.0
2016-Jul-08 17:04N 38°58' E 117°48'0 0.0
2016-Jul-08 14:32N 38°58' E 117°48'2 2.0
2016-Jul-08 13:33N 38°58' E 117°50'19 0.7
2016-Jul-07 09:28N 38°50' E 118°12'0 0.0
2016-Jul-07 08:28N 38°50' E 118°12'0 0.0
2016-Jul-07 07:22N 38°50' E 118°12'0 0.0
2016-Jul-07 06:22N 38°50' E 118°12'0 0.1
2016-Jul-07 03:16N 38°50' E 118°12'0 0.0
2016-Jul-06 16:28N 38°50' E 118°12'0 0.3
2016-Jul-06 15:28N 38°50' E 118°12'0 0.0
2016-Jul-06 14:16N 38°50' E 118°12'0 0.0
2016-Jul-06 11:10N 38°50' E 118°12'0 0.1
2016-Jul-06 10:16N 38°50' E 118°12'0 0.2
2016-Jul-06 09:04N 38°50' E 118°12'0 0.1
2016-Jul-06 08:28N 38°50' E 118°12'0 0.0
2016-Jul-05 19:10N 38°50' E 118°12'0 0.0
2016-Jul-05 16:22N 38°50' E 118°12'0 0.2
2016-Jul-05 15:28N 38°50' E 118°12'0 0.3
2016-Jul-05 14:28N 38°50' E 118°12'0 0.2
2016-Jul-05 13:28N 38°50' E 118°12'4 4.4
2016-Jul-05 12:33N 38°49' E 118°17'9 9.2
2016-Jul-05 11:33N 38°51' E 118°29'1111.0
2016-Jul-05 10:33N 38°49' E 118°43'1211.2
2016-Jul-05 09:29N 38°48' E 118°58'1210.9
2016-Jul-05 08:25N 38°47' E 119°13'5012.2
2016-Jul-05 04:18N 38°40' E 120°17'4812.1
2016-Jul-05 00:19N 38°30' E 121°17'911.5
2016-Jul-04 23:33N 38°29' E 121°28'1110.9
2016-Jul-04 22:34N 38°28' E 121°42'1210.9
2016-Jul-04 21:27N 38°27' E 121°57'1010.9
2016-Jul-04 20:33N 38°25' E 122°10'  
Track history (hours):
 
Tides and Currents Weather Stations Pressure Air Temp Water Temp Dewpoint Dewpoint Depression Visibility Wind Speed Wind Dir Waves Ship Positions

Raiatea

Last reported at 2016-Jul-14 06:33 UTC. Time now 2016-Jul-27 23:03 UTC.
Position N 36°27' E 124°07'.
Warning: this ship's position is 13 days out of date.

Length 292 m; draft 8.9 m.

Type: Cargo ship. MMSI: 538004070.

Date/timePositionNaut miles runAvg speedWind from/ knotsBaromVisibWave heightAir tempDewpointWater temp
2016-Jul-14 06:33N 36°27' E 124°07'9413.4
2016-Jul-13 23:30N 37°53' E 123°16'1414.4
2016-Jul-13 22:33N 37°57' E 122°60'1414.4
2016-Jul-13 21:33N 38°02' E 122°42'1414.1
2016-Jul-13 20:34N 38°06' E 122°25'1414.1
2016-Jul-13 19:33N 38°11' E 122°09'1514.4
2016-Jul-13 18:33N 38°16' E 121°51'1414.5
2016-Jul-13 17:33N 38°21' E 121°34'1814.8
2016-Jul-13 16:22N 38°26' E 121°12'1414.9
2016-Jul-13 15:27N 38°32' E 120°57'1514.9
2016-Jul-13 14:25N 38°34' E 120°37'1314.6
2016-Jul-13 13:34N 38°36' E 120°21'1414.4
2016-Jul-13 12:33N 38°38' E 120°03'1414.1
2016-Jul-13 11:33N 38°39' E 119°45'1413.8
2016-Jul-13 10:33N 38°40' E 119°27'1313.5
2016-Jul-13 09:33N 38°40' E 119°10'1413.6
2016-Jul-13 08:33N 38°40' E 118°53'1414.2
2016-Jul-13 07:33N 38°37' E 118°35'1212.0
2016-Jul-13 06:33N 38°34' E 118°20'1211.7
2016-Jul-13 05:34N 38°28' E 118°07'  
2016-Jul-10 10:28N 38°22' E 117°54'35 2.0
2016-Jul-09 17:25N 38°56' E 117°59'9 9.8
2016-Jul-09 16:33N 38°58' E 117°48'0 0.0
2016-Jul-09 03:22N 38°58' E 117°48'0 0.0
2016-Jul-09 02:04N 38°58' E 117°48'0 0.0
2016-Jul-08 17:04N 38°58' E 117°48'0 0.0
2016-Jul-08 14:32N 38°58' E 117°48'2 2.0
2016-Jul-08 13:33N 38°58' E 117°50'19 0.7
2016-Jul-07 09:28N 38°50' E 118°12'0 0.0
2016-Jul-07 08:28N 38°50' E 118°12'0 0.0
2016-Jul-07 07:22N 38°50' E 118°12'0 0.0
2016-Jul-07 06:22N 38°50' E 118°12'0 0.1
2016-Jul-07 03:16N 38°50' E 118°12'0 0.0
2016-Jul-06 16:28N 38°50' E 118°12'0 0.3
2016-Jul-06 15:28N 38°50' E 118°12'0 0.0
2016-Jul-06 14:16N 38°50' E 118°12'0 0.0
2016-Jul-06 11:10N 38°50' E 118°12'0 0.1
2016-Jul-06 10:16N 38°50' E 118°12'0 0.2
2016-Jul-06 09:04N 38°50' E 118°12'0 0.1
2016-Jul-06 08:28N 38°50' E 118°12'0 0.0
2016-Jul-05 19:10N 38°50' E 118°12'0 0.0
2016-Jul-05 16:22N 38°50' E 118°12'0 0.2
2016-Jul-05 15:28N 38°50' E 118°12'0 0.3
2016-Jul-05 14:28N 38°50' E 118°12'0 0.2
2016-Jul-05 13:28N 38°50' E 118°12'4 4.4
2016-Jul-05 12:33N 38°49' E 118°17'9 9.2
2016-Jul-05 11:33N 38°51' E 118°29'1111.0
2016-Jul-05 10:33N 38°49' E 118°43'1211.2
2016-Jul-05 09:29N 38°48' E 118°58'1210.9
2016-Jul-05 08:25N 38°47' E 119°13'5012.2
2016-Jul-05 04:18N 38°40' E 120°17'4812.1
2016-Jul-05 00:19N 38°30' E 121°17'911.5
2016-Jul-04 23:33N 38°29' E 121°28'1110.9
2016-Jul-04 22:34N 38°28' E 121°42'1210.9
2016-Jul-04 21:27N 38°27' E 121°57'1010.9
2016-Jul-04 20:33N 38°25' E 122°10'  

Dump ship's entire track history